createdAt,value
2018-06-19T00:02:37.890Z,87.60
2018-06-19T00:06:42.611Z,89.00
2018-06-19T00:10:47.146Z,88.60
2018-06-19T00:14:52.367Z,89.00
2018-06-19T00:18:59.521Z,89.30
2018-06-19T00:23:04.633Z,89.00
2018-06-19T00:27:09.900Z,89.40
2018-06-19T00:31:15.181Z,84.60
2018-06-19T00:35:20.734Z,85.40
2018-06-19T00:39:29.821Z,86.30
2018-06-19T00:43:34.683Z,86.10
2018-06-19T00:47:39.092Z,85.50
2018-06-19T00:51:43.339Z,86.70
2018-06-19T00:55:47.714Z,86.20
2018-06-19T00:59:51.902Z,85.90
2018-06-19T01:03:56.525Z,86.60
2018-06-19T01:08:00.756Z,86.60
2018-06-19T01:12:05.147Z,86.50
2018-06-19T01:16:09.365Z,87.20
2018-06-19T01:20:13.739Z,88.40
2018-06-19T01:24:17.964Z,89.10
2018-06-19T01:32:26.240Z,89.70
2018-06-19T01:36:30.910Z,90.40
2018-06-19T01:40:35.197Z,90.90
2018-06-19T01:44:39.404Z,90.80
2018-06-19T01:48:43.786Z,90.90
2018-06-19T01:52:48.003Z,91.30
2018-06-19T01:56:52.357Z,91.60
2018-06-19T02:00:56.564Z,91.30
2018-06-19T02:05:00.931Z,91.20
2018-06-19T02:13:10.379Z,91.30
2018-06-19T02:17:14.576Z,91.70
2018-06-19T02:21:18.829Z,90.60
2018-06-19T02:25:23.038Z,90.30
2018-06-19T02:37:35.023Z,90.20
2018-06-19T02:41:39.250Z,90.40
2018-06-19T02:45:43.514Z,90.70
2018-06-19T02:49:47.845Z,90.40
2018-06-19T02:53:52.036Z,90.40
2018-06-19T02:57:56.372Z,90.10
2018-06-19T03:02:00.591Z,89.70
2018-06-19T03:06:04.932Z,89.00
2018-06-19T03:10:09.181Z,89.30
2018-06-19T03:14:13.447Z,87.80
2018-06-19T03:18:17.659Z,86.40
2018-06-19T03:22:22.130Z,86.40
2018-06-19T03:26:26.374Z,87.40
2018-06-19T03:30:30.833Z,87.60
2018-06-19T03:34:35.043Z,86.40
2018-06-19T03:38:39.291Z,88.00
2018-06-19T03:42:43.462Z,87.30
2018-06-19T03:46:47.732Z,86.90
2018-06-19T03:50:51.929Z,87.40
2018-06-19T03:54:56.364Z,88.30
2018-06-19T03:59:00.653Z,88.30
2018-06-19T04:03:05.267Z,88.20
2018-06-19T04:07:09.817Z,87.50
2018-06-19T04:11:14.051Z,88.30
2018-06-19T04:15:18.575Z,89.40
2018-06-19T04:19:22.817Z,88.60
2018-06-19T04:23:27.155Z,88.00
2018-06-19T04:27:31.399Z,87.10
2018-06-19T04:31:35.860Z,87.20
2018-06-19T04:35:40.496Z,87.50
2018-06-19T04:39:44.787Z,87.40
2018-06-19T04:43:49.213Z,87.50
2018-06-19T04:47:53.562Z,86.40
2018-06-19T04:51:57.806Z,87.70
2018-06-19T04:56:02.224Z,86.80
2018-06-19T05:00:06.855Z,87.90
2018-06-19T05:04:11.200Z,86.70
2018-06-19T05:08:15.496Z,86.90
2018-06-19T05:12:20.487Z,87.80
2018-06-19T05:16:25.191Z,83.50
2018-06-19T05:20:29.512Z,80.40
2018-06-19T05:24:33.712Z,73.20
2018-06-19T05:28:38.087Z,73.10
2018-06-19T05:32:42.691Z,74.60
2018-06-19T05:36:47.276Z,68.30
2018-06-19T05:40:51.912Z,64.00
2018-06-19T05:44:56.429Z,64.00
2018-06-19T05:49:00.965Z,61.00
2018-06-19T05:53:05.429Z,63.50
2018-06-19T05:57:09.976Z,59.50
2018-06-19T06:01:14.279Z,57.80
2018-06-19T06:05:18.636Z,59.10
2018-06-19T06:09:31.110Z,60.00
2018-06-19T06:13:35.298Z,57.90
2018-06-19T06:17:39.666Z,56.20
2018-06-19T06:21:43.857Z,56.50
2018-06-19T06:25:48.084Z,54.90
2018-06-19T06:29:52.299Z,55.20
2018-06-19T06:33:57.255Z,53.10
2018-06-19T06:38:01.593Z,54.10
2018-06-19T06:42:05.891Z,55.40
2018-06-19T06:46:10.412Z,53.80
2018-06-19T06:50:14.887Z,52.60
2018-06-19T06:54:19.166Z,54.90
2018-06-19T06:58:23.428Z,51.70
2018-06-19T07:02:27.770Z,50.30
2018-06-19T07:06:32.733Z,51.10
2018-06-19T07:10:36.948Z,50.50
2018-06-19T07:14:41.733Z,49.20
2018-06-19T07:18:45.922Z,49.30
2018-06-19T07:22:50.155Z,50.00
2018-06-19T07:26:54.385Z,49.00
2018-06-19T07:30:58.577Z,48.70
2018-06-19T07:35:02.857Z,48.60
2018-06-19T07:39:08.998Z,47.80
2018-06-19T07:43:13.203Z,48.30
2018-06-19T07:47:17.394Z,47.50
2018-06-19T07:51:21.760Z,49.70
2018-06-19T07:55:26.135Z,46.80
2018-06-19T07:59:30.684Z,46.30
2018-06-19T08:03:35.082Z,44.10
2018-06-19T08:07:39.293Z,43.90
2018-06-19T08:11:43.604Z,46.50
2018-06-19T08:15:47.936Z,43.40
2018-06-19T08:19:52.177Z,44.30
2018-06-19T08:23:56.420Z,45.20
2018-06-19T08:28:00.647Z,44.70
2018-06-19T08:32:05.002Z,44.80
2018-06-19T08:36:09.351Z,43.80
2018-06-19T08:40:13.607Z,42.70
2018-06-19T08:44:17.885Z,41.80
2018-06-19T08:48:22.195Z,42.00
2018-06-19T08:52:26.476Z,43.40
2018-06-19T08:56:30.672Z,41.90
2018-06-19T09:00:34.845Z,44.70
2018-06-19T09:04:39.125Z,41.30
2018-06-19T09:08:43.413Z,38.00
2018-06-19T09:12:47.674Z,34.60
2018-06-19T09:16:51.974Z,33.20
2018-06-19T09:20:56.213Z,30.60
2018-06-19T09:25:00.487Z,30.00
2018-06-19T09:29:04.763Z,31.30
2018-06-19T09:33:09.011Z,31.90
2018-06-19T09:37:13.247Z,28.40
2018-06-19T09:41:18.792Z,30.00
2018-06-19T09:45:23.349Z,31.60
2018-06-19T09:49:28.341Z,32.40
2018-06-19T09:53:33.252Z,31.90
2018-06-19T09:57:38.369Z,34.10
2018-06-19T10:01:42.893Z,34.80
2018-06-19T10:05:47.760Z,36.00
2018-06-19T10:09:53.207Z,37.70
2018-06-19T10:13:58.399Z,38.60
2018-06-19T10:18:03.273Z,37.50
2018-06-19T10:22:07.897Z,36.60
2018-06-19T10:30:16.725Z,32.40
2018-06-19T10:34:21.562Z,32.60
2018-06-19T10:38:26.472Z,33.40
2018-06-19T10:42:31.139Z,32.00
2018-06-19T10:46:35.901Z,30.30
2018-06-19T10:50:40.308Z,33.20
2018-06-19T10:54:46.332Z,32.90
2018-06-19T10:58:51.571Z,29.50
2018-06-19T11:02:55.936Z,28.50
2018-06-19T11:07:00.517Z,27.70
2018-06-19T11:11:05.170Z,26.50
2018-06-19T11:15:09.388Z,27.20
2018-06-19T11:19:14.187Z,26.90
2018-06-19T11:23:18.824Z,25.20
2018-06-19T11:27:23.903Z,24.70
2018-06-19T11:31:28.295Z,24.80
2018-06-19T11:35:33.389Z,25.00
2018-06-19T11:39:38.672Z,25.80
2018-06-19T11:43:43.469Z,25.40
2018-06-19T11:47:48.310Z,28.50
2018-06-19T11:51:53.160Z,28.60
2018-06-19T11:55:58.415Z,27.30
2018-06-19T12:00:03.025Z,27.30
2018-06-19T12:04:08.189Z,30.50
2018-06-19T12:08:13.066Z,29.50
2018-06-19T12:12:18.390Z,30.80
2018-06-19T12:16:22.996Z,34.10
2018-06-19T12:20:28.273Z,35.90
2018-06-19T12:24:34.379Z,35.90
2018-06-19T12:28:39.128Z,30.90
2018-06-19T12:32:43.773Z,27.20
2018-06-19T12:36:49.393Z,23.80
2018-06-19T12:40:54.692Z,25.40
2018-06-19T12:44:59.594Z,29.00
2018-06-19T12:49:05.058Z,29.40
2018-06-19T12:53:20.821Z,32.90
2018-06-19T12:57:25.671Z,33.30
2018-06-19T13:01:30.129Z,29.30
2018-06-19T13:05:45.364Z,23.40
2018-06-19T13:09:50.340Z,22.30
2018-06-19T13:14:05.605Z,23.30
2018-06-19T13:18:20.960Z,24.30
2018-06-19T13:22:26.080Z,27.90
2018-06-19T13:26:31.601Z,33.80
2018-06-19T13:31:47.256Z,34.60
2018-06-19T13:35:52.468Z,34.20
2018-06-19T13:41:41.157Z,31.20
2018-06-19T13:45:46.351Z,28.30
2018-06-19T13:49:51.093Z,28.60
2018-06-19T13:58:32.560Z,28.20
2018-06-19T14:02:37.014Z,27.40
2018-06-19T14:06:41.473Z,27.80
2018-06-19T14:10:57.708Z,32.70
2018-06-19T14:15:02.701Z,34.00
2018-06-19T14:19:07.931Z,30.20
2018-06-19T14:23:13.269Z,29.60
2018-06-19T14:27:17.774Z,28.30
2018-06-19T14:31:22.183Z,26.20
2018-06-19T14:35:26.953Z,25.50
2018-06-19T14:39:32.378Z,27.30
2018-06-19T14:43:36.880Z,25.90
2018-06-19T14:47:42.449Z,24.20
2018-06-19T14:51:46.868Z,19.80
2018-06-19T14:55:51.556Z,21.70
2018-06-19T14:59:56.357Z,21.10
2018-06-19T15:04:02.018Z,20.50
2018-06-19T15:08:07.324Z,20.10
2018-06-19T15:12:12.649Z,19.70
2018-06-19T15:16:19.395Z,19.80
2018-06-19T15:20:24.836Z,20.00
2018-06-19T15:24:30.460Z,20.90
2018-06-19T15:28:35.030Z,19.50
2018-06-19T15:32:40.400Z,21.40
2018-06-19T15:36:45.903Z,19.70
2018-06-19T15:40:50.389Z,19.30
2018-06-19T15:44:55.882Z,19.30
2018-06-19T15:49:00.812Z,19.00
2018-06-19T15:53:05.743Z,18.80
2018-06-19T15:57:11.938Z,21.00
2018-06-19T16:01:16.307Z,20.00
2018-06-19T16:05:20.916Z,23.40
2018-06-19T16:09:25.531Z,22.60
2018-06-19T16:13:30.148Z,22.70
2018-06-19T16:22:28.149Z,28.40
2018-06-19T16:26:33.813Z,27.60
2018-06-19T16:30:39.074Z,30.50
2018-06-19T16:34:44.113Z,32.60
2018-06-19T16:38:49.248Z,39.40
2018-06-19T16:42:54.645Z,37.60
2018-06-19T16:46:59.754Z,40.40
2018-06-19T16:51:04.320Z,38.50
2018-06-19T16:55:08.931Z,39.30
2018-06-19T16:59:14.530Z,35.00
2018-06-19T17:03:19.281Z,41.40
2018-06-19T17:11:33.129Z,40.50
2018-06-19T17:15:37.964Z,40.50
2018-06-19T17:19:42.499Z,40.40
2018-06-19T17:23:47.152Z,44.00
2018-06-19T17:27:51.610Z,44.50
2018-06-19T17:31:56.021Z,42.40
2018-06-19T17:36:00.397Z,45.80
2018-06-19T17:40:05.361Z,47.90
2018-06-19T17:44:10.035Z,50.10
2018-06-19T17:48:14.768Z,52.60
2018-06-19T17:52:19.584Z,46.50
2018-06-19T17:56:24.702Z,44.50
2018-06-19T18:00:29.034Z,44.60
2018-06-19T18:04:33.738Z,44.60
2018-06-19T18:08:38.491Z,45.10
2018-06-19T18:12:44.804Z,48.50
2018-06-19T18:16:50.277Z,49.60
2018-06-19T18:20:54.947Z,52.00
2018-06-19T18:24:59.374Z,51.80
2018-06-19T18:29:05.121Z,52.10
2018-06-19T18:33:10.587Z,55.70
2018-06-19T18:37:16.533Z,59.50
2018-06-19T18:41:22.054Z,61.20
2018-06-19T18:45:27.472Z,62.30
2018-06-19T18:49:32.412Z,61.10
2018-06-19T18:53:38.668Z,61.20
2018-06-19T18:57:44.404Z,64.30
2018-06-19T19:01:49.922Z,63.40
2018-06-19T19:05:55.207Z,65.30
2018-06-19T19:10:04.982Z,64.50
2018-06-19T19:14:09.431Z,65.50
2018-06-19T19:18:19.879Z,67.20
2018-06-19T19:22:24.721Z,66.50
2018-06-19T19:26:34.632Z,69.50
2018-06-19T19:30:40.390Z,69.60
2018-06-19T19:34:45.421Z,69.90
2018-06-19T19:38:55.698Z,71.00
2018-06-19T19:43:00.240Z,72.30
2018-06-19T19:47:09.983Z,71.60
2018-06-19T19:51:15.674Z,73.10
2018-06-19T19:55:21.391Z,71.90
2018-06-19T19:59:26.794Z,73.10
2018-06-19T20:03:31.828Z,74.90
2018-06-19T20:07:37.325Z,74.40
2018-06-19T20:11:41.722Z,75.70
2018-06-19T20:15:46.609Z,75.60
2018-06-19T20:19:52.632Z,76.10
2018-06-19T20:23:57.817Z,77.00
2018-06-19T20:28:02.472Z,75.90
2018-06-19T20:32:07.073Z,76.60
2018-06-19T20:40:17.516Z,78.70
2018-06-19T20:44:23.249Z,78.90
2018-06-19T20:48:28.529Z,80.00
2018-06-19T20:52:33.613Z,79.40
2018-06-19T20:56:38.750Z,80.20
2018-06-19T21:00:43.580Z,80.80
2018-06-19T21:04:48.628Z,80.90
2018-06-19T21:08:53.293Z,82.00
2018-06-19T21:12:59.222Z,81.90
2018-06-19T21:17:03.893Z,82.50
2018-06-19T21:21:09.095Z,83.20
2018-06-19T21:25:13.353Z,83.40
2018-06-19T21:29:18.209Z,83.60
2018-06-19T21:33:22.721Z,83.40
2018-06-19T21:37:27.671Z,84.40
2018-06-19T21:41:32.476Z,84.30
2018-06-19T21:45:37.136Z,85.80
2018-06-19T21:49:42.252Z,86.80
2018-06-19T21:53:46.881Z,86.10
2018-06-19T21:57:51.748Z,85.80
2018-06-19T22:01:57.142Z,87.30
2018-06-19T22:06:01.759Z,87.10
2018-06-19T22:10:06.425Z,87.80
2018-06-19T22:14:10.974Z,87.70
2018-06-19T22:18:16.529Z,87.70
2018-06-19T22:22:21.264Z,88.40
2018-06-19T22:26:26.654Z,88.30
2018-06-19T22:30:31.954Z,88.50
2018-06-19T22:34:36.456Z,88.60
2018-06-19T22:38:41.565Z,89.10
2018-06-19T22:42:46.364Z,89.70
2018-06-19T22:46:51.370Z,89.80
2018-06-19T22:50:56.254Z,90.70
2018-06-19T22:55:00.715Z,91.40
2018-06-19T22:59:05.784Z,91.00
2018-06-19T23:03:10.449Z,91.40
2018-06-19T23:07:14.934Z,91.70
2018-06-19T23:11:20.938Z,91.80
2018-06-19T23:15:26.475Z,92.40
2018-06-19T23:19:31.813Z,91.90
2018-06-19T23:23:38.703Z,92.70
2018-06-19T23:27:43.429Z,92.60
2018-06-19T23:31:47.905Z,93.00
2018-06-19T23:35:52.225Z,93.50
2018-06-19T23:39:57.293Z,92.90
2018-06-19T23:44:02.612Z,93.20
2018-06-19T23:48:07.891Z,93.70
2018-06-19T23:52:13.237Z,94.00
2018-06-19T23:56:18.271Z,93.60
